createdAt,value
2022-10-10T00:01:34.246Z,9.51
2022-10-10T00:04:02.610Z,9.49
2022-10-10T00:06:33.070Z,9.48
2022-10-10T00:09:03.217Z,9.44
2022-10-10T00:11:31.234Z,9.40
2022-10-10T00:13:59.367Z,9.39
2022-10-10T00:16:26.986Z,9.39
2022-10-10T00:18:54.629Z,9.34
2022-10-10T00:21:22.214Z,9.36
2022-10-10T00:23:49.721Z,9.34
2022-10-10T00:26:19.510Z,9.32
2022-10-10T00:28:47.458Z,9.32
2022-10-10T00:31:15.741Z,9.33
2022-10-10T00:33:43.244Z,9.34
2022-10-10T00:36:10.952Z,9.33
2022-10-10T00:38:38.473Z,9.34
2022-10-10T00:41:06.326Z,9.33
2022-10-10T00:43:35.944Z,9.31
2022-10-10T00:46:03.955Z,9.28
2022-10-10T00:48:34.299Z,9.28
2022-10-10T00:51:04.128Z,9.26
2022-10-10T00:53:35.464Z,9.28
2022-10-10T00:56:04.354Z,9.29
2022-10-10T00:58:33.515Z,9.34
2022-10-10T01:01:02.761Z,9.38
2022-10-10T01:03:30.274Z,9.35
2022-10-10T01:05:57.826Z,9.36
2022-10-10T01:08:25.432Z,9.40
2022-10-10T01:11:06.188Z,9.39
2022-10-10T01:13:40.260Z,9.38
2022-10-10T01:16:17.272Z,9.39
2022-10-10T01:18:53.345Z,9.38
2022-10-10T01:21:28.541Z,9.38
2022-10-10T01:24:31.398Z,9.41
2022-10-10T01:27:12.402Z,9.41
2022-10-10T01:29:44.625Z,9.45
2022-10-10T01:32:17.146Z,9.40
2022-10-10T01:34:56.643Z,9.39
2022-10-10T01:37:34.752Z,9.36
2022-10-10T01:40:10.325Z,9.37
2022-10-10T01:42:43.779Z,9.38
2022-10-10T01:45:12.715Z,9.38
2022-10-10T01:47:40.277Z,9.34
2022-10-10T01:50:13.529Z,9.35
2022-10-10T01:52:53.720Z,9.37
2022-10-10T01:55:35.463Z,9.35
2022-10-10T01:58:18.743Z,9.37
2022-10-10T02:00:52.676Z,9.37
2022-10-10T02:03:25.171Z,9.37
2022-10-10T02:05:57.248Z,9.35
2022-10-10T02:08:29.681Z,9.34
2022-10-10T02:11:01.264Z,9.36
2022-10-10T02:13:32.216Z,9.34
2022-10-10T02:16:03.913Z,9.34
2022-10-10T02:18:36.198Z,9.36
2022-10-10T02:21:07.311Z,9.35
2022-10-10T02:23:35.562Z,9.33
2022-10-10T02:26:05.232Z,9.35
2022-10-10T02:28:39.025Z,9.37
2022-10-10T02:31:11.960Z,9.34
2022-10-10T02:33:45.585Z,9.35
2022-10-10T02:36:15.336Z,9.30
2022-10-10T02:38:44.265Z,9.26
2022-10-10T02:41:15.468Z,9.22
2022-10-10T02:43:43.431Z,9.18
2022-10-10T02:46:14.550Z,9.12
2022-10-10T02:48:42.371Z,9.05
2022-10-10T02:51:10.588Z,9.02
2022-10-10T02:53:39.661Z,8.98
2022-10-10T02:56:07.840Z,8.97
2022-10-10T02:58:35.555Z,8.92
2022-10-10T03:01:03.216Z,8.92
2022-10-10T03:03:32.085Z,8.90
2022-10-10T03:05:59.621Z,8.89
2022-10-10T03:08:27.138Z,8.89
2022-10-10T03:10:56.703Z,8.90
2022-10-10T03:13:25.173Z,8.88
2022-10-10T03:15:52.801Z,8.87
2022-10-10T03:18:21.104Z,8.83
2022-10-10T03:20:52.815Z,8.81
2022-10-10T03:23:20.736Z,8.79
2022-10-10T03:25:48.347Z,8.77
2022-10-10T03:28:16.125Z,8.76
2022-10-10T03:30:44.075Z,8.70
2022-10-10T03:33:11.631Z,8.71
2022-10-10T03:35:39.152Z,8.69
2022-10-10T03:38:08.393Z,8.68
2022-10-10T03:40:41.761Z,8.66
2022-10-10T03:43:09.371Z,8.69
2022-10-10T03:45:37.185Z,8.66
2022-10-10T03:48:05.885Z,8.66
2022-10-10T03:50:33.400Z,8.67
2022-10-10T03:53:00.924Z,8.67
2022-10-10T03:55:29.861Z,8.71
2022-10-10T03:57:57.384Z,8.72
2022-10-10T04:00:25.104Z,8.70
2022-10-10T04:02:53.565Z,8.72
2022-10-10T04:05:21.367Z,8.67
2022-10-10T04:07:48.920Z,8.66
2022-10-10T04:10:16.806Z,8.70
2022-10-10T04:12:45.687Z,8.78
2022-10-10T04:15:13.198Z,8.82
2022-10-10T04:17:40.701Z,8.85
2022-10-10T04:20:08.964Z,8.83
2022-10-10T04:22:36.581Z,8.80
2022-10-10T04:25:04.288Z,8.77
2022-10-10T04:27:31.881Z,8.71
2022-10-10T04:30:00.721Z,8.71
2022-10-10T04:32:28.205Z,8.68
2022-10-10T04:34:55.707Z,8.65
2022-10-10T04:37:23.240Z,8.60
2022-10-10T04:39:50.777Z,8.61
2022-10-10T04:42:18.421Z,8.61
2022-10-10T04:44:45.959Z,8.59
2022-10-10T04:47:14.797Z,8.58
2022-10-10T04:49:42.353Z,8.49
2022-10-10T04:52:10.146Z,8.52
2022-10-10T04:54:37.725Z,8.49
2022-10-10T04:57:05.521Z,8.47
2022-10-10T04:59:33.805Z,8.47
2022-10-10T05:02:02.080Z,8.48
2022-10-10T05:04:31.159Z,8.51
2022-10-10T05:06:58.776Z,8.50
2022-10-10T05:09:26.630Z,8.51
2022-10-10T05:11:54.143Z,8.52
2022-10-10T05:14:21.669Z,8.56
2022-10-10T05:16:49.204Z,8.60
2022-10-10T05:19:16.715Z,8.65
2022-10-10T05:21:45.604Z,8.68
2022-10-10T05:24:13.136Z,8.69
2022-10-10T05:26:43.265Z,8.74
2022-10-10T05:29:11.032Z,8.77
2022-10-10T05:31:38.676Z,8.77
2022-10-10T05:34:06.232Z,8.81
2022-10-10T05:36:33.800Z,8.83
2022-10-10T05:39:03.292Z,8.88
2022-10-10T05:41:30.817Z,8.94
2022-10-10T05:43:58.403Z,9.02
2022-10-10T05:46:27.389Z,9.03
2022-10-10T05:48:55.570Z,9.07
2022-10-10T05:51:23.132Z,9.18
2022-10-10T05:53:50.629Z,9.20
2022-10-10T05:56:19.709Z,9.25
2022-10-10T05:58:47.309Z,9.38
2022-10-10T06:01:14.822Z,9.55
2022-10-10T06:03:42.409Z,9.57
2022-10-10T06:06:09.970Z,9.55
2022-10-10T06:08:37.493Z,9.54
2022-10-10T06:11:07.854Z,9.51
2022-10-10T06:13:37.751Z,9.51
2022-10-10T06:16:05.438Z,9.54
2022-10-10T06:18:32.980Z,9.47
2022-10-10T06:21:03.141Z,9.49
2022-10-10T06:23:30.863Z,9.47
2022-10-10T06:25:58.517Z,9.47
2022-10-10T06:28:26.317Z,9.53
2022-10-10T06:30:55.188Z,9.61
2022-10-10T06:33:22.776Z,9.67
2022-10-10T06:35:50.421Z,9.75
2022-10-10T06:38:18.004Z,9.88
2022-10-10T06:40:46.405Z,10.03
2022-10-10T06:43:16.097Z,10.14
2022-10-10T06:45:45.016Z,10.34
2022-10-10T06:48:15.671Z,10.47
2022-10-10T06:50:43.432Z,10.58
2022-10-10T06:53:11.028Z,10.71
2022-10-10T06:55:38.673Z,10.85
2022-10-10T06:58:07.486Z,10.87
2022-10-10T07:00:35.118Z,10.94
2022-10-10T07:03:02.651Z,11.07
2022-10-10T07:05:31.527Z,11.15
2022-10-10T07:07:59.057Z,11.24
2022-10-10T07:10:26.617Z,11.26
2022-10-10T07:12:54.422Z,11.27
2022-10-10T07:15:22.079Z,11.27
2022-10-10T07:17:54.270Z,11.24
2022-10-10T07:20:21.973Z,11.15
2022-10-10T07:22:51.272Z,11.20
2022-10-10T07:25:18.973Z,11.10
2022-10-10T07:27:46.524Z,11.07
2022-10-10T07:30:14.470Z,11.05
2022-10-10T07:32:44.152Z,11.02
2022-10-10T07:35:12.305Z,11.06
2022-10-10T07:37:40.076Z,11.07
2022-10-10T07:40:10.589Z,11.12
2022-10-10T07:42:38.241Z,11.09
2022-10-10T07:45:07.182Z,11.00
2022-10-10T07:47:34.817Z,11.00
2022-10-10T07:50:02.526Z,11.00
2022-10-10T07:52:30.063Z,10.99
2022-10-10T07:54:57.612Z,10.97
2022-10-10T07:57:26.651Z,10.96
2022-10-10T07:59:54.242Z,10.97
2022-10-10T08:02:21.792Z,10.98
2022-10-10T08:04:49.968Z,11.02
2022-10-10T08:07:19.469Z,11.08
2022-10-10T08:09:47.080Z,11.14
2022-10-10T08:12:14.685Z,11.21
2022-10-10T08:14:43.690Z,11.23
2022-10-10T08:17:11.591Z,11.26
2022-10-10T08:19:39.446Z,11.28
2022-10-10T08:22:07.285Z,11.38
2022-10-10T08:24:34.940Z,11.43
2022-10-10T08:27:02.484Z,11.53
2022-10-10T08:29:30.072Z,11.65
2022-10-10T08:31:58.982Z,11.76
2022-10-10T08:34:26.527Z,11.93
2022-10-10T08:36:54.081Z,12.14
2022-10-10T08:39:21.788Z,12.36
2022-10-10T08:41:52.199Z,12.61
2022-10-10T08:44:25.290Z,12.89
2022-10-10T08:46:56.560Z,13.11
2022-10-10T08:49:30.963Z,13.36
2022-10-10T08:52:04.586Z,13.59
2022-10-10T08:54:35.451Z,13.79
2022-10-10T08:57:06.838Z,14.01
2022-10-10T08:59:36.439Z,14.25
2022-10-10T09:02:53.262Z,14.48
2022-10-10T09:05:34.753Z,14.67
2022-10-10T09:08:17.813Z,14.94
2022-10-10T09:10:56.227Z,15.14
2022-10-10T09:13:32.711Z,15.43
2022-10-10T09:16:02.271Z,15.69
2022-10-10T09:18:42.285Z,16.03
2022-10-10T09:21:17.184Z,16.35
2022-10-10T09:23:51.564Z,16.55
2022-10-10T09:26:24.163Z,16.84
2022-10-10T09:28:57.966Z,16.95
2022-10-10T09:31:37.090Z,17.14
2022-10-10T09:34:15.099Z,17.30
2022-10-10T09:36:48.421Z,17.54
2022-10-10T09:39:23.692Z,17.80
2022-10-10T09:41:58.995Z,17.95
2022-10-10T09:44:26.513Z,18.02
2022-10-10T09:46:55.114Z,18.15
2022-10-10T09:49:23.115Z,18.28
2022-10-10T09:51:52.169Z,18.44
2022-10-10T09:54:22.673Z,18.70
2022-10-10T09:56:54.686Z,19.00
2022-10-10T09:59:40.531Z,19.35
2022-10-10T10:02:15.026Z,19.54
2022-10-10T10:04:42.648Z,19.54
2022-10-10T10:07:22.650Z,19.63
2022-10-10T10:09:51.793Z,19.69
2022-10-10T10:12:23.016Z,19.87
2022-10-10T10:14:51.795Z,20.13
2022-10-10T10:17:24.359Z,20.47
2022-10-10T10:19:52.192Z,20.80
2022-10-10T10:22:33.064Z,21.02
2022-10-10T10:25:21.182Z,21.18
2022-10-10T10:27:50.103Z,21.33
2022-10-10T10:30:26.296Z,21.58
2022-10-10T10:33:02.916Z,21.94
2022-10-10T10:35:37.156Z,22.11
2022-10-10T10:38:18.815Z,22.19
2022-10-10T10:40:54.948Z,22.13
2022-10-10T10:43:36.757Z,22.40
2022-10-10T10:46:11.694Z,22.67
2022-10-10T10:48:46.179Z,22.83
2022-10-10T10:51:29.526Z,23.22
2022-10-10T10:54:08.440Z,23.50
2022-10-10T10:56:42.036Z,23.65
2022-10-10T11:00:16.654Z,23.98
2022-10-10T11:02:54.709Z,24.27
2022-10-10T11:05:41.640Z,23.94
2022-10-10T11:08:37.493Z,23.59
2022-10-10T11:11:21.269Z,23.27
2022-10-10T11:14:00.004Z,22.88
2022-10-10T11:16:50.584Z,22.54
2022-10-10T11:19:28.778Z,22.69
2022-10-10T11:22:03.052Z,22.76
2022-10-10T11:24:40.184Z,22.84
2022-10-10T11:27:14.236Z,23.02
2022-10-10T11:29:53.973Z,22.78
2022-10-10T11:32:28.252Z,23.24
2022-10-10T11:35:07.237Z,23.85
2022-10-10T11:37:40.976Z,23.99
2022-10-10T11:40:26.651Z,24.35
2022-10-10T11:42:58.855Z,24.35
2022-10-10T11:45:29.200Z,24.48
2022-10-10T11:48:05.917Z,24.83
2022-10-10T11:50:38.328Z,24.53
2022-10-10T11:53:13.104Z,24.34
2022-10-10T11:55:46.321Z,24.39
2022-10-10T11:58:26.092Z,24.83
2022-10-10T12:00:57.544Z,24.64
2022-10-10T12:03:27.200Z,24.46
2022-10-10T12:06:01.110Z,25.54
2022-10-10T12:08:35.862Z,25.97
2022-10-10T12:11:10.654Z,25.84
2022-10-10T12:13:41.231Z,26.65
2022-10-10T12:16:11.248Z,26.98
2022-10-10T12:18:45.810Z,26.47
2022-10-10T12:21:15.876Z,26.94
2022-10-10T12:23:47.301Z,27.11
2022-10-10T12:26:17.586Z,26.63
2022-10-10T12:29:05.937Z,27.27
2022-10-10T12:31:36.029Z,27.36
2022-10-10T12:34:14.202Z,27.06
2022-10-10T12:36:58.049Z,26.56
2022-10-10T12:40:01.546Z,27.38
2022-10-10T12:42:31.344Z,26.04
2022-10-10T12:44:58.857Z,27.31
2022-10-10T12:48:03.264Z,28.26
2022-10-10T12:50:27.828Z,28.36
2022-10-10T12:52:58.478Z,28.79
2022-10-10T12:55:29.999Z,29.64
2022-10-10T12:58:00.803Z,27.86
2022-10-10T13:00:37.153Z,27.13
2022-10-10T13:03:13.441Z,28.06
2022-10-10T13:05:42.659Z,27.99
2022-10-10T13:08:16.066Z,28.88
2022-10-10T13:10:44.119Z,28.40
2022-10-10T13:13:18.872Z,28.83
2022-10-10T13:15:53.250Z,29.31
2022-10-10T13:18:33.939Z,29.59
2022-10-10T13:21:04.137Z,29.62
2022-10-10T13:23:32.892Z,30.31
2022-10-10T13:26:00.613Z,30.02
2022-10-10T13:28:29.049Z,30.33
2022-10-10T13:30:56.854Z,29.79
2022-10-10T13:33:30.210Z,29.58
2022-10-10T13:36:07.700Z,28.32
2022-10-10T13:38:36.584Z,28.57
2022-10-10T13:41:05.535Z,29.29
2022-10-10T13:43:34.296Z,29.51
2022-10-10T13:46:03.463Z,30.06
2022-10-10T13:48:40.883Z,30.03
2022-10-10T13:51:12.137Z,29.37
2022-10-10T13:53:50.528Z,29.82
2022-10-10T13:56:26.466Z,29.63
2022-10-10T13:58:58.053Z,29.85
2022-10-10T14:01:32.930Z,30.72
2022-10-10T14:04:08.672Z,31.65
2022-10-10T14:06:37.844Z,30.57
2022-10-10T14:09:10.297Z,31.49
2022-10-10T14:11:38.371Z,32.00
2022-10-10T14:14:09.405Z,32.60
2022-10-10T14:16:37.030Z,32.20
2022-10-10T14:19:04.603Z,32.39
2022-10-10T14:21:32.284Z,32.83
2022-10-10T14:24:01.319Z,30.78
2022-10-10T14:26:29.024Z,31.66
2022-10-10T14:28:56.655Z,31.00
2022-10-10T14:31:26.270Z,31.28
2022-10-10T14:33:54.026Z,31.95
2022-10-10T14:36:22.125Z,32.20
2022-10-10T14:38:49.749Z,32.91
2022-10-10T14:41:18.705Z,33.26
2022-10-10T14:43:46.453Z,33.33
2022-10-10T14:46:19.253Z,32.57
2022-10-10T14:48:47.338Z,31.61
2022-10-10T14:51:33.932Z,30.96
2022-10-10T14:54:11.989Z,30.72
2022-10-10T14:57:06.825Z,30.91
2022-10-10T14:59:47.331Z,30.93
2022-10-10T15:02:16.489Z,30.03
2022-10-10T15:04:44.072Z,30.24
2022-10-10T15:07:14.673Z,30.26
2022-10-10T15:09:56.595Z,30.14
2022-10-10T15:12:32.175Z,29.88
2022-10-10T15:14:59.723Z,29.10
2022-10-10T15:17:29.556Z,28.43
2022-10-10T15:19:57.201Z,28.31
2022-10-10T15:22:24.870Z,28.22
2022-10-10T15:24:52.571Z,28.10
2022-10-10T15:27:20.350Z,28.11
2022-10-10T15:29:49.301Z,28.10
2022-10-10T15:32:16.870Z,28.01
2022-10-10T15:34:44.921Z,27.83
2022-10-10T15:37:12.504Z,27.72
2022-10-10T15:39:41.138Z,27.78
2022-10-10T15:42:14.996Z,27.81
2022-10-10T15:44:46.554Z,27.53
2022-10-10T15:47:16.992Z,27.43
2022-10-10T15:49:44.700Z,27.22
2022-10-10T15:52:12.291Z,26.95
2022-10-10T15:54:40.061Z,26.56
2022-10-10T15:57:07.789Z,26.12
2022-10-10T15:59:37.938Z,25.82
2022-10-10T16:02:08.156Z,25.42
2022-10-10T16:04:37.088Z,25.13
2022-10-10T16:07:25.486Z,24.79
2022-10-10T16:09:53.516Z,24.30
2022-10-10T16:12:21.097Z,23.94
2022-10-10T16:14:48.842Z,23.48
2022-10-10T16:17:20.797Z,23.28
2022-10-10T16:19:52.366Z,22.92
2022-10-10T16:22:20.292Z,22.66
2022-10-10T16:25:10.164Z,22.26
2022-10-10T16:27:36.565Z,22.06
2022-10-10T16:30:04.549Z,21.97
2022-10-10T16:32:34.195Z,21.79
2022-10-10T16:35:06.387Z,21.45
2022-10-10T16:37:34.223Z,21.27
2022-10-10T16:40:01.769Z,21.00
2022-10-10T16:42:29.357Z,20.88
2022-10-10T16:44:56.970Z,20.70
2022-10-10T16:47:24.537Z,20.57
2022-10-10T16:49:52.061Z,20.34
2022-10-10T16:52:20.937Z,20.06
2022-10-10T16:54:51.962Z,19.93
2022-10-10T16:57:20.146Z,19.83
2022-10-10T16:59:47.839Z,19.67
2022-10-10T17:02:15.429Z,19.59
2022-10-10T17:04:43.007Z,19.51
2022-10-10T17:07:10.547Z,19.37
2022-10-10T17:09:39.488Z,19.32
2022-10-10T17:12:07.184Z,19.21
2022-10-10T17:14:34.963Z,19.11
2022-10-10T17:17:17.716Z,18.88
2022-10-10T17:19:45.283Z,18.75
2022-10-10T17:22:12.844Z,18.57
2022-10-10T17:24:41.778Z,18.40
2022-10-10T17:27:09.531Z,18.36
2022-10-10T17:29:37.161Z,18.31
2022-10-10T17:32:06.753Z,18.28
2022-10-10T17:34:35.039Z,18.23
2022-10-10T17:37:02.729Z,18.18
2022-10-10T17:39:30.281Z,18.13
2022-10-10T17:41:59.919Z,18.10
2022-10-10T17:44:27.479Z,18.03
2022-10-10T17:46:55.077Z,18.01
2022-10-10T17:49:22.670Z,17.97
2022-10-10T17:51:50.248Z,17.90
2022-10-10T17:54:18.235Z,17.79
2022-10-10T17:56:45.813Z,17.68
2022-10-10T17:59:14.712Z,17.65
2022-10-10T18:01:42.557Z,17.61
2022-10-10T18:04:10.358Z,17.61
2022-10-10T18:06:38.685Z,17.56
2022-10-10T18:09:07.241Z,17.55
2022-10-10T18:11:35.074Z,17.53
2022-10-10T18:14:02.582Z,17.54
2022-10-10T18:16:34.107Z,17.54
2022-10-10T18:19:03.291Z,17.50
2022-10-10T18:21:30.852Z,17.51
2022-10-10T18:23:58.624Z,17.52
2022-10-10T18:26:29.348Z,17.44
2022-10-10T18:28:58.061Z,17.46
2022-10-10T18:31:27.881Z,17.47
2022-10-10T18:33:57.180Z,17.46
2022-10-10T18:36:27.167Z,17.46
2022-10-10T18:38:55.303Z,17.42
2022-10-10T18:41:25.076Z,17.35
2022-10-10T18:43:53.014Z,17.32
2022-10-10T18:46:22.441Z,17.28
2022-10-10T18:48:54.083Z,17.24
2022-10-10T18:51:25.868Z,17.19
2022-10-10T18:53:58.423Z,17.16
2022-10-10T18:56:25.981Z,17.15
2022-10-10T18:58:56.163Z,17.15
2022-10-10T19:01:25.424Z,17.10
2022-10-10T19:03:54.640Z,17.07
2022-10-10T19:06:24.487Z,17.05
2022-10-10T19:08:52.561Z,17.02
2022-10-10T19:11:21.897Z,17.05
2022-10-10T19:13:49.967Z,16.98
2022-10-10T19:16:18.513Z,17.00
2022-10-10T19:18:46.447Z,16.94
2022-10-10T19:21:15.000Z,16.83
2022-10-10T19:23:44.287Z,16.77
2022-10-10T19:26:14.514Z,16.74
2022-10-10T19:28:42.617Z,16.69
2022-10-10T19:31:13.491Z,16.67
2022-10-10T19:33:42.225Z,16.62
2022-10-10T19:36:12.083Z,16.58
2022-10-10T19:38:42.002Z,16.58
2022-10-10T19:41:14.000Z,16.56
2022-10-10T19:43:41.694Z,16.53
2022-10-10T19:46:12.340Z,16.52
2022-10-10T19:48:40.365Z,16.50
2022-10-10T19:51:10.255Z,16.47
2022-10-10T19:53:38.085Z,16.42
2022-10-10T19:56:07.981Z,16.43
2022-10-10T19:58:37.600Z,16.42
2022-10-10T20:01:07.530Z,16.42
2022-10-10T20:03:35.141Z,16.42
2022-10-10T20:06:03.786Z,16.53
2022-10-10T20:08:31.672Z,16.53
2022-10-10T20:10:59.224Z,16.54
2022-10-10T20:13:27.288Z,16.87
2022-10-10T20:16:00.924Z,17.11
2022-10-10T20:18:28.853Z,17.24
2022-10-10T20:20:56.604Z,17.44
2022-10-10T20:23:26.019Z,17.53
2022-10-10T20:25:53.996Z,17.62
2022-10-10T20:28:22.546Z,17.62
2022-10-10T20:30:52.177Z,17.66
2022-10-10T20:33:22.311Z,17.73
2022-10-10T20:35:55.145Z,17.78
2022-10-10T20:38:25.676Z,17.83
2022-10-10T20:40:53.261Z,17.89
2022-10-10T20:43:20.773Z,17.86
2022-10-10T20:45:48.362Z,17.88
2022-10-10T20:48:15.892Z,17.84
2022-10-10T20:50:44.884Z,17.82
2022-10-10T20:53:13.335Z,17.84
2022-10-10T20:55:42.229Z,17.79
2022-10-10T20:58:09.977Z,17.84
2022-10-10T21:00:40.835Z,17.82
2022-10-10T21:03:08.536Z,17.80
2022-10-10T21:05:36.125Z,17.79
2022-10-10T21:08:05.236Z,17.82
2022-10-10T21:10:33.103Z,17.80
2022-10-10T21:13:00.744Z,17.80
2022-10-10T21:15:28.283Z,17.78
2022-10-10T21:17:55.953Z,17.78
2022-10-10T21:20:23.552Z,17.84
2022-10-10T21:22:51.109Z,17.81
2022-10-10T21:25:20.001Z,17.75
2022-10-10T21:27:49.796Z,17.74
2022-10-10T21:30:17.472Z,17.70
2022-10-10T21:32:45.121Z,17.69
2022-10-10T21:35:12.780Z,17.68
2022-10-10T21:37:41.304Z,17.71
2022-10-10T21:40:10.041Z,17.67
2022-10-10T21:42:39.061Z,17.66
2022-10-10T21:45:08.041Z,17.70
2022-10-10T21:47:35.660Z,17.71
2022-10-10T21:50:03.163Z,17.69
2022-10-10T21:52:30.683Z,17.64
2022-10-10T21:54:58.191Z,17.65
2022-10-10T21:57:25.763Z,17.59
2022-10-10T21:59:54.635Z,17.63
2022-10-10T22:02:22.203Z,17.61
2022-10-10T22:04:51.361Z,17.60
2022-10-10T22:07:19.245Z,17.65
2022-10-10T22:09:46.790Z,17.65
2022-10-10T22:12:15.792Z,17.54
2022-10-10T22:14:43.447Z,17.51
2022-10-10T22:17:12.291Z,17.50
2022-10-10T22:19:39.876Z,17.46
2022-10-10T22:22:07.390Z,17.48
2022-10-10T22:24:34.891Z,17.45
2022-10-10T22:27:02.443Z,17.48
2022-10-10T22:29:29.979Z,17.40
2022-10-10T22:31:57.671Z,17.34
2022-10-10T22:34:26.582Z,17.39
2022-10-10T22:36:55.423Z,17.30
2022-10-10T22:39:23.013Z,17.29
2022-10-10T22:41:50.665Z,17.29
2022-10-10T22:44:18.392Z,17.30
2022-10-10T22:46:45.923Z,17.28
2022-10-10T22:49:13.472Z,17.32
2022-10-10T22:51:42.323Z,17.26
2022-10-10T22:54:11.677Z,17.20
2022-10-10T22:56:39.200Z,17.16
2022-10-10T22:59:06.715Z,17.12
2022-10-10T23:01:34.260Z,17.10
2022-10-10T23:04:09.077Z,17.08
2022-10-10T23:06:36.948Z,17.07
2022-10-10T23:09:06.017Z,17.06
2022-10-10T23:11:33.875Z,17.03
2022-10-10T23:14:01.697Z,17.02
2022-10-10T23:16:31.693Z,16.99
2022-10-10T23:19:00.444Z,16.94
2022-10-10T23:21:28.095Z,17.01
2022-10-10T23:23:55.789Z,16.98
2022-10-10T23:26:24.640Z,16.99
2022-10-10T23:28:52.283Z,16.95
2022-10-10T23:31:19.959Z,16.92
2022-10-10T23:33:47.511Z,16.89
2022-10-10T23:36:16.090Z,16.79
2022-10-10T23:38:44.455Z,16.75
2022-10-10T23:41:13.033Z,16.73
2022-10-10T23:43:41.913Z,16.67
2022-10-10T23:46:09.603Z,16.66
2022-10-10T23:48:37.740Z,16.63
2022-10-10T23:51:05.490Z,16.61
2022-10-10T23:53:33.217Z,16.58
2022-10-10T23:56:00.871Z,16.54
2022-10-10T23:58:28.677Z,16.51
